Time;durP1;ratioP1;P1;durP2;ratioP2;P2;SDS_P1;SDS_P2;PMS_P1;PMS_P2;Temp;Humidity;BMP_temperature;BMP_pressure;BME280_temperature;BME280_humidity;BME280_pressure;Samples;Min_cycle;Max_cycle;Signal;HPM_P1;HPM_P2
2021/07/22 00:01:24;;;;;;;12.30;7.97;;;;;;;15.09;85.27;101544.19;5094334;28;20179;-67
2021/07/22 00:03:49;;;;;;;12.10;9.10;;;;;;;15.15;86.20;101541.13;5094176;28;20206;-67
2021/07/22 00:06:15;;;;;;;14.10;9.63;;;;;;;15.03;87.26;101544.56;5076272;28;20755;-67
2021/07/22 00:08:40;;;;;;;12.07;9.63;;;;;;;14.94;88.31;101540.63;5094744;28;20201;-67
2021/07/22 00:11:06;;;;;;;13.50;9.67;;;;;;;14.92;88.82;101539.84;5094125;28;20171;-68
2021/07/22 00:13:31;;;;;;;12.67;8.93;;;;;;;14.91;88.61;101543.50;5094113;28;20195;-67
2021/07/22 00:15:57;;;;;;;16.43;8.80;;;;;;;14.92;88.42;101542.53;5094411;28;20551;-67
2021/07/22 00:18:22;;;;;;;11.43;8.63;;;;;;;14.94;86.88;101537.06;5093805;28;20189;-67
2021/07/22 00:20:48;;;;;;;11.17;9.70;;;;;;;14.85;88.69;101537.59;5094764;28;20223;-67
2021/07/22 00:23:13;;;;;;;10.80;9.63;;;;;;;14.70;90.05;101545.63;5094544;28;20279;-67
2021/07/22 00:25:39;;;;;;;11.63;9.90;;;;;;;14.61;90.61;101548.00;5097622;28;20186;-69
2021/07/22 00:28:04;;;;;;;10.80;9.47;;;;;;;14.57;90.67;101533.00;5096649;28;20196;-68
2021/07/22 00:30:30;;;;;;;9.80;8.63;;;;;;;14.56;90.97;101537.50;5095162;28;20177;-68
2021/07/22 00:32:57;;;;;;;12.27;9.83;;;;;;;14.63;90.64;101538.00;5093731;28;20201;-67
2021/07/22 00:35:23;;;;;;;11.03;9.40;;;;;;;14.64;90.81;101542.44;5093733;28;20217;-68
2021/07/22 00:37:48;;;;;;;11.23;8.80;;;;;;;14.63;90.76;101533.50;5093933;28;20170;-68
2021/07/22 00:40:13;;;;;;;12.00;9.33;;;;;;;14.65;90.60;101536.09;5093735;28;20531;-68
2021/07/22 00:43:01;;;;;;;11.80;8.57;;;;;;;14.68;90.15;101536.78;5093636;28;20249;-68
2021/07/22 00:45:28;;;;;;;10.83;8.40;;;;;;;14.71;89.93;101530.38;5092430;28;20186;-68
2021/07/22 00:47:54;;;;;;;12.93;9.47;;;;;;;14.70;89.97;101531.31;5093635;28;20174;-68
2021/07/22 00:50:19;;;;;;;13.20;8.57;;;;;;;14.76;90.08;101530.09;5092322;28;20170;-68
2021/07/22 00:52:44;;;;;;;13.30;10.27;;;;;;;14.79;90.13;101537.97;5093389;28;20551;-68
2021/07/22 00:55:12;;;;;;;11.43;9.57;;;;;;;14.78;90.39;101534.41;5093284;28;20194;-68
2021/07/22 00:57:38;;;;;;;13.37;10.80;;;;;;;14.82;90.63;101532.41;5093365;28;20234;-68
2021/07/22 01:00:04;;;;;;;13.33;10.87;;;;;;;14.79;90.63;101528.09;5093841;28;20175;-68
2021/07/22 01:02:29;;;;;;;12.13;9.57;;;;;;;14.77;91.09;101526.44;5091203;28;20178;-68
2021/07/22 01:04:54;;;;;;;11.43;9.27;;;;;;;14.77;91.22;101521.06;5093132;28;20202;-68
2021/07/22 01:07:19;;;;;;;14.77;9.90;;;;;;;14.75;91.19;101526.53;5093554;28;20177;-68
2021/07/22 01:09:45;;;;;;;9.90;8.90;;;;;;;14.68;91.45;101533.22;5093125;28;20211;-68
2021/07/22 01:12:10;;;;;;;11.03;9.60;;;;;;;14.63;91.58;101524.59;5093357;28;20664;-68
2021/07/22 01:14:35;;;;;;;12.10;10.30;;;;;;;14.59;91.42;101523.03;5093159;28;20197;-68
2021/07/22 01:17:04;;;;;;;13.23;10.40;;;;;;;14.54;91.39;101523.31;5091898;28;20174;-68
2021/07/22 01:19:29;;;;;;;13.80;10.63;;;;;;;14.55;91.77;101518.81;5091916;28;20536;-68
2021/07/22 01:21:54;;;;;;;13.00;9.77;;;;;;;14.52;91.06;101519.84;5093762;28;20174;-68
2021/07/22 01:24:20;;;;;;;13.57;10.03;;;;;;;14.47;91.07;101524.59;5093184;28;20681;-68
2021/07/22 01:26:45;;;;;;;15.10;10.30;;;;;;;14.42;91.41;101520.41;5093213;28;20177;-68
2021/07/22 01:29:10;;;;;;;22.20;12.00;;;;;;;14.39;92.35;101516.09;5093273;28;20174;-68
2021/07/22 01:31:36;;;;;;;14.53;11.73;;;;;;;14.41;92.63;101519.56;5093256;28;20511;-69
2021/07/22 01:34:01;;;;;;;17.13;11.33;;;;;;;14.39;92.62;101521.47;5091734;28;20613;-69
2021/07/22 01:36:26;;;;;;;14.30;10.53;;;;;;;14.40;92.69;101523.19;5091799;28;20588;-68
2021/07/22 01:38:52;;;;;;;14.93;10.63;;;;;;;14.39;92.56;101522.31;5093423;28;20176;-68
2021/07/22 01:41:18;;;;;;;14.20;10.23;;;;;;;14.40;92.22;101516.00;5092306;28;20265;-68
2021/07/22 01:43:43;;;;;;;11.07;9.87;;;;;;;14.35;92.43;101518.09;5093504;28;20194;-69
2021/07/22 01:46:08;;;;;;;13.47;10.67;;;;;;;14.36;92.87;101513.59;5093106;28;20534;-69
2021/07/22 01:48:33;;;;;;;15.00;10.70;;;;;;;14.47;92.99;101513.00;5092696;28;20179;-68
2021/07/22 01:50:59;;;;;;;11.67;9.40;;;;;;;14.31;91.74;101521.03;5092718;28;20174;-68
2021/07/22 01:53:24;;;;;;;12.93;9.33;;;;;;;14.32;91.94;101525.47;5091512;28;20199;-68
2021/07/22 01:55:49;;;;;;;10.23;9.23;;;;;;;14.34;91.98;101523.56;5093194;28;20252;-68
2021/07/22 01:58:15;;;;;;;10.57;8.03;;;;;;;14.23;91.77;101520.63;5092684;28;20639;-68
2021/07/22 02:00:40;;;;;;;10.20;8.70;;;;;;;14.18;91.83;101520.03;5091600;28;20169;-69
2021/07/22 02:03:05;;;;;;;11.30;9.40;;;;;;;14.16;92.16;101517.44;5092900;28;20166;-68
2021/07/22 02:05:30;;;;;;;12.80;8.70;;;;;;;13.98;92.30;101519.31;5091675;28;20202;-68
2021/07/22 02:07:56;;;;;;;17.17;9.50;;;;;;;14.01;92.52;101521.84;5092687;28;20639;-68
2021/07/22 02:10:21;;;;;;;10.93;8.53;;;;;;;14.12;92.04;101520.34;5093029;28;20167;-68
2021/07/22 02:12:46;;;;;;;12.53;9.43;;;;;;;14.20;91.81;101516.31;5074398;28;20198;-68
2021/07/22 02:15:12;;;;;;;11.37;10.17;;;;;;;14.24;91.91;101517.00;5094536;28;20194;-68
2021/07/22 02:17:37;;;;;;;13.37;9.40;;;;;;;14.20;91.92;101515.44;5096346;28;20727;-68
2021/07/22 02:20:03;;;;;;;11.83;8.93;;;;;;;14.15;91.94;101515.69;5095255;28;20181;-68
2021/07/22 02:22:29;;;;;;;13.47;10.07;;;;;;;14.08;92.87;101516.97;5095010;28;20538;-68
2021/07/22 02:24:54;;;;;;;12.37;9.37;;;;;;;14.05;92.92;101511.78;5094902;28;20194;-68
2021/07/22 02:27:19;;;;;;;11.50;9.30;;;;;;;14.02;93.30;101514.66;5095288;28;20174;-68
2021/07/22 02:29:44;;;;;;;13.77;10.07;;;;;;;14.04;94.31;101518.97;5095042;28;20170;-68
2021/07/22 02:32:10;;;;;;;14.17;11.20;;;;;;;14.09;93.54;101514.22;5096404;28;20250;-69
2021/07/22 02:34:35;;;;;;;14.03;11.33;;;;;;;14.08;93.50;101517.84;5095908;28;20666;-68
2021/07/22 02:37:00;;;;;;;16.47;10.80;;;;;;;14.11;93.21;101522.16;5094850;28;20639;-68
2021/07/22 02:39:26;;;;;;;15.30;10.60;;;;;;;14.12;93.62;101520.34;5096041;28;20181;-68
2021/07/22 02:41:51;;;;;;;21.30;10.90;;;;;;;14.13;93.53;101517.63;5095781;28;20171;-68
2021/07/22 02:44:16;;;;;;;18.50;10.60;;;;;;;14.16;92.99;101524.63;5096112;28;20327;-68
2021/07/22 02:46:42;;;;;;;13.27;11.07;;;;;;;14.18;92.95;101520.03;5095953;28;20198;-68
2021/07/22 02:49:07;;;;;;;12.97;10.00;;;;;;;14.21;92.58;101520.72;5094838;28;20183;-68
2021/07/22 02:51:32;;;;;;;13.23;10.70;;;;;;;14.23;92.75;101524.19;5095591;28;20171;-68
2021/07/22 02:53:57;;;;;;;14.17;10.07;;;;;;;14.28;93.23;101526.59;5094291;28;20205;-68
2021/07/22 02:56:23;;;;;;;12.97;10.00;;;;;;;14.28;93.95;101530.16;5095584;28;20203;-68
2021/07/22 02:58:48;;;;;;;12.63;10.43;;;;;;;14.33;93.67;101527.19;5094264;28;20178;-68
2021/07/22 03:01:13;;;;;;;14.27;10.70;;;;;;;14.38;93.04;101533.16;5094218;28;20170;-68
2021/07/22 03:03:39;;;;;;;14.77;9.73;;;;;;;14.36;93.46;101525.19;5095221;28;20177;-68
2021/07/22 03:06:04;;;;;;;14.23;10.30;;;;;;;14.32;93.44;101522.78;5095915;28;20173;-68
2021/07/22 03:08:29;;;;;;;13.03;10.07;;;;;;;14.28;92.70;101526.59;5094028;28;20592;-68
2021/07/22 03:10:54;;;;;;;12.90;10.50;;;;;;;14.20;93.50;101529.72;5095290;28;20170;-68
2021/07/22 03:13:20;;;;;;;13.30;10.23;;;;;;;14.23;94.30;101536.75;5095125;28;20194;-68
2021/07/22 03:15:46;;;;;;;15.97;10.80;;;;;;;14.28;95.16;101545.41;5095092;28;20205;-68
2021/07/22 03:18:11;;;;;;;13.50;10.57;;;;;;;14.29;95.38;101536.38;5095070;28;20655;-68
2021/07/22 03:20:36;;;;;;;15.10;10.90;;;;;;;14.35;95.26;101536.88;5093920;28;20179;-68
2021/07/22 03:23:02;;;;;;;13.03;10.40;;;;;;;14.37;95.57;101536.81;5094042;28;20166;-68
2021/07/22 03:25:28;;;;;;;13.93;10.50;;;;;;;14.36;95.85;101529.69;5094195;28;20190;-68
2021/07/22 03:27:57;;;;;;;15.63;10.67;;;;;;;14.37;95.38;101534.13;5094954;28;20173;-68
2021/07/22 03:30:22;;;;;;;12.70;10.97;;;;;;;14.43;96.29;101531.09;5093688;28;20184;-68
2021/07/22 03:32:47;;;;;;;11.47;10.17;;;;;;;14.53;95.88;101536.84;5095342;28;20205;-68
2021/07/22 03:35:13;;;;;;;12.67;10.00;;;;;;;14.63;95.14;101538.88;5095074;28;20532;-68
2021/07/22 03:37:38;;;;;;;15.20;9.97;;;;;;;14.61;95.56;101537.25;5095277;28;20241;-68
2021/07/22 03:40:04;;;;;;;11.27;9.30;;;;;;;14.57;95.91;101539.25;5094721;28;20171;-69
2021/07/22 03:42:31;;;;;;;13.03;10.13;;;;;;;14.63;95.49;101538.00;5094643;28;20202;-68
2021/07/22 03:44:56;;;;;;;13.70;9.40;;;;;;;14.65;95.32;101536.97;5094601;28;20192;-68
2021/07/22 03:47:21;;;;;;;13.47;10.00;;;;;;;14.80;95.39;101539.69;5094566;28;20233;-68
2021/07/22 03:49:47;;;;;;;13.23;10.10;;;;;;;14.86;95.05;101536.63;5094932;28;20181;-68
2021/07/22 03:52:12;;;;;;;10.70;9.27;;;;;;;14.93;95.04;101533.50;5094727;28;20250;-68
2021/07/22 03:54:38;;;;;;;15.70;10.40;;;;;;;14.92;95.44;101528.22;5093285;28;20194;-68
2021/07/22 03:57:04;;;;;;;10.50;9.37;;;;;;;14.97;95.67;101532.38;5093050;28;20177;-68
2021/07/22 03:59:29;;;;;;;11.73;9.00;;;;;;;15.01;95.95;101539.28;5094205;28;20178;-68
2021/07/22 04:01:54;;;;;;;11.63;9.70;;;;;;;15.10;96.04;101535.16;5094342;28;20492;-68
2021/07/22 04:04:20;;;;;;;12.87;9.67;;;;;;;15.17;95.20;101528.47;5113046;22;20611;-69
2021/07/22 04:06:45;;;;;;;13.83;9.87;;;;;;;15.08;95.13;101523.66;5074320;28;20612;-69
2021/07/22 04:09:10;;;;;;;13.10;8.77;;;;;;;15.13;94.78;101537.66;5073853;28;20532;-69
2021/07/22 04:11:36;;;;;;;16.03;9.63;;;;;;;15.16;95.53;101536.63;5073981;28;20202;-69
2021/07/22 04:14:02;;;;;;;12.60;9.80;;;;;;;15.08;96.19;101539.78;5072242;28;20215;-69
2021/07/22 04:16:27;;;;;;;12.73;9.70;;;;;;;15.10;96.14;101537.00;5073776;28;20179;-69
2021/07/22 04:18:52;;;;;;;19.77;12.53;;;;;;;15.20;95.71;101533.66;5075817;28;20175;-68
2021/07/22 04:21:17;;;;;;;15.50;9.83;;;;;;;15.22;96.03;101538.94;5076181;28;20190;-69
2021/07/22 04:23:43;;;;;;;10.87;9.67;;;;;;;15.43;93.75;101545.69;5073767;28;20179;-69
2021/07/22 04:26:15;;;;;;;11.67;9.57;;;;;;;15.42;93.62;101538.59;5073647;28;20670;-68
2021/07/22 04:28:40;;;;;;;12.73;9.60;;;;;;;15.43;93.35;101540.31;5072701;28;20237;-68
2021/07/22 04:31:06;;;;;;;12.60;9.67;;;;;;;15.38;93.09;101537.03;5074043;28;20517;-68
2021/07/22 04:33:31;;;;;;;11.20;9.20;;;;;;;15.39;92.91;101532.53;5074076;28;20206;-68
2021/07/22 04:35:56;;;;;;;11.30;9.37;;;;;;;15.34;92.45;101535.50;5073514;28;20194;-68
2021/07/22 04:38:21;;;;;;;12.73;9.50;;;;;;;15.45;91.87;101530.31;5073500;28;20218;-68
2021/07/22 04:40:47;;;;;;;13.80;10.00;;;;;;;15.47;90.85;101536.47;5073477;28;20174;-68
2021/07/22 04:43:12;;;;;;;13.67;10.80;;;;;;;15.53;89.87;101535.22;5071809;28;20489;-68
2021/07/22 04:45:37;;;;;;;15.57;9.97;;;;;;;15.57;89.18;101531.38;5073013;28;20243;-68
2021/07/22 04:48:03;;;;;;;13.03;9.90;;;;;;;15.60;88.53;101536.59;5071920;28;20175;-69
2021/07/22 04:50:28;;;;;;;11.90;9.27;;;;;;;15.70;86.41;101540.44;5073517;28;20178;-68
2021/07/22 04:52:54;;;;;;;12.37;9.30;;;;;;;15.73;85.79;101536.72;5073274;28;20567;-68
2021/07/22 04:55:19;;;;;;;12.90;9.30;;;;;;;15.71;83.83;101534.13;5073052;28;20194;-68
2021/07/22 04:57:44;;;;;;;14.37;9.17;;;;;;;15.71;82.11;101535.94;5071930;28;20215;-68
2021/07/22 05:00:10;;;;;;;10.07;7.90;;;;;;;15.80;81.90;101533.53;5073451;28;20175;-68
2021/07/22 05:02:35;;;;;;;11.33;8.50;;;;;;;15.81;82.31;101532.56;5072754;28;20193;-68
2021/07/22 05:05:00;;;;;;;11.93;8.20;;;;;;;15.82;82.07;101536.97;5072945;28;20210;-68
2021/07/22 05:07:26;;;;;;;13.40;8.77;;;;;;;15.80;81.93;101533.53;5071752;28;20602;-67
2021/07/22 05:09:51;;;;;;;11.83;8.83;;;;;;;15.90;82.01;101540.03;5071567;28;20213;-68
2021/07/22 05:12:16;;;;;;;10.13;8.13;;;;;;;16.06;81.53;101533.69;5072758;28;20202;-68
2021/07/22 05:14:42;;;;;;;10.43;8.40;;;;;;;16.06;81.87;101534.53;5071270;28;20206;-68
2021/07/22 05:17:07;;;;;;;10.77;8.33;;;;;;;16.18;81.63;101528.34;5071448;28;20186;-68
2021/07/22 05:19:32;;;;;;;11.30;8.43;;;;;;;16.29;81.08;101513.31;5071512;28;20623;-68
2021/07/22 05:21:58;;;;;;;11.23;8.30;;;;;;;16.41;80.34;101501.75;5072951;28;20535;-68
2021/07/22 05:24:23;;;;;;;10.97;7.30;;;;;;;16.53;79.89;101511.69;5072785;28;20194;-68
2021/07/22 05:26:51;;;;;;;14.13;8.03;;;;;;;16.61;80.09;101511.16;5072769;28;20254;-68
2021/07/22 05:29:17;;;;;;;8.13;7.17;;;;;;;16.85;78.63;101514.94;5071327;28;20171;-68
2021/07/22 05:31:43;;;;;;;12.43;8.37;;;;;;;16.83;77.28;101512.34;5071517;28;20201;-68
2021/07/22 05:34:11;;;;;;;11.40;8.33;;;;;;;16.90;77.43;101515.47;5070928;28;20199;-68
2021/07/22 05:36:37;;;;;;;10.07;7.80;;;;;;;16.86;77.29;101512.13;5071159;28;20175;-68
2021/07/22 05:39:03;;;;;;;10.43;8.37;;;;;;;16.98;77.03;101515.81;5072722;28;20497;-68
2021/07/22 05:41:28;;;;;;;10.60;8.20;;;;;;;17.11;76.40;101521.25;5072520;28;20173;-68
2021/07/22 05:43:54;;;;;;;12.10;8.17;;;;;;;17.22;75.76;101520.50;5072929;28;20174;-68
2021/07/22 05:46:19;;;;;;;10.33;8.30;;;;;;;17.25;75.24;101522.97;5071168;28;20175;-68
2021/07/22 05:48:46;;;;;;;11.03;8.77;;;;;;;17.31;75.16;101531.50;5071732;28;20171;-67
2021/07/22 05:51:11;;;;;;;14.00;8.13;;;;;;;17.23;75.79;101533.88;5076800;28;20182;-68
2021/07/22 05:53:37;;;;;;;10.37;8.40;;;;;;;17.11;76.32;101535.59;5076104;28;20671;-68
2021/07/22 05:56:02;;;;;;;12.20;8.40;;;;;;;16.96;77.43;101535.75;5076244;28;20190;-68
2021/07/22 05:58:27;;;;;;;13.70;9.67;;;;;;;16.97;77.82;101530.25;5076065;28;20224;-68
2021/07/22 06:00:53;;;;;;;19.57;14.27;;;;;;;16.93;78.24;101530.59;5074726;28;20224;-68
2021/07/22 06:03:18;;;;;;;12.97;8.83;;;;;;;17.05;76.92;101527.03;5074680;28;20224;-68
2021/07/22 06:05:44;;;;;;;14.40;10.57;;;;;;;17.03;76.90;101526.28;5075814;28;20216;-67
2021/07/22 06:08:09;;;;;;;13.17;10.87;;;;;;;17.09;76.27;101534.81;5074725;28;20186;-68
2021/07/22 06:10:34;;;;;;;19.80;11.10;;;;;;;17.00;76.63;101527.34;5075819;28;20179;-68
2021/07/22 06:13:00;;;;;;;12.17;8.40;;;;;;;16.94;77.71;101533.19;5074366;28;20202;-68
2021/07/22 06:15:25;;;;;;;11.63;9.43;;;;;;;17.03;77.51;101534.38;5075738;28;20199;-68
2021/07/22 06:17:51;;;;;;;11.83;8.83;;;;;;;17.06;77.62;101534.16;5074788;28;20182;-68
2021/07/22 06:20:16;;;;;;;14.13;8.60;;;;;;;17.18;76.81;101534.19;5074623;28;20558;-68
2021/07/22 06:22:44;;;;;;;12.30;8.70;;;;;;;17.12;77.23;101523.84;5075946;28;20689;-68
2021/07/22 06:25:10;;;;;;;9.57;7.90;;;;;;;17.05;77.35;101519.81;5075903;28;20200;-68
2021/07/22 06:27:35;;;;;;;10.27;7.53;;;;;;;17.26;76.71;101519.31;5075856;28;20194;-68
2021/07/22 06:30:02;;;;;;;10.93;7.67;;;;;;;17.38;76.32;101516.59;5075940;28;20193;-68
2021/07/22 06:32:27;;;;;;;12.27;8.20;;;;;;;17.65;75.15;101529.97;5075726;28;20202;-69
2021/07/22 06:34:52;;;;;;;12.80;8.57;;;;;;;17.68;74.10;101524.38;5075414;28;20199;-68
2021/07/22 06:37:18;;;;;;;11.33;8.63;;;;;;;17.78;74.64;101521.88;5074724;28;20694;-68
2021/07/22 06:39:43;;;;;;;11.40;8.53;;;;;;;17.68;74.87;101518.13;5057447;28;20547;-68
2021/07/22 06:42:08;;;;;;;10.80;8.40;;;;;;;17.77;75.03;101510.22;5075671;28;20222;-68
2021/07/22 06:44:34;;;;;;;10.53;7.90;;;;;;;18.08;73.38;101518.78;5075382;28;20195;-68
2021/07/22 06:47:00;;;;;;;11.33;8.27;;;;;;;18.31;72.42;101517.97;5075356;28;20193;-68
2021/07/22 06:49:25;;;;;;;14.30;8.87;;;;;;;18.08;73.60;101516.09;5074810;28;20261;-68
2021/07/22 06:51:51;;;;;;;11.73;8.13;;;;;;;18.48;72.64;101513.97;5074067;28;20635;-68
2021/07/22 06:54:17;;;;;;;15.17;8.90;;;;;;;18.74;70.87;101521.03;5073764;28;20226;-68
2021/07/22 06:56:42;;;;;;;12.33;8.30;;;;;;;18.80;69.24;101508.88;5074148;28;20186;-68
2021/07/22 06:59:08;;;;;;;11.33;7.97;;;;;;;18.79;69.77;101515.25;5075022;28;20175;-68
2021/07/22 07:01:33;;;;;;;15.07;9.03;;;;;;;18.69;69.52;101519.66;5073751;28;20213;-68
2021/07/22 07:03:58;;;;;;;12.67;8.03;;;;;;;18.66;69.59;101522.59;5075317;28;20202;-68
2021/07/22 07:06:23;;;;;;;14.07;8.07;;;;;;;18.56;70.49;101522.38;5074903;28;20193;-68
2021/07/22 07:08:49;;;;;;;11.37;8.10;;;;;;;18.47;70.81;101516.78;5074801;28;20597;-66
2021/07/22 07:11:14;;;;;;;10.97;8.27;;;;;;;18.32;71.21;101513.41;5074916;28;20528;-68
2021/07/22 07:13:39;;;;;;;12.77;8.20;;;;;;;18.21;71.02;101521.44;5075231;28;20718;-68
2021/07/22 07:16:06;;;;;;;12.77;8.60;;;;;;;18.08;70.41;101521.50;5074885;28;20206;-68
2021/07/22 07:18:31;;;;;;;10.03;8.40;;;;;;;17.97;70.18;101519.59;5074865;28;20236;-68
2021/07/22 07:20:56;;;;;;;17.87;8.83;;;;;;;17.98;70.47;101521.31;5074261;28;20175;-68
2021/07/22 07:23:22;;;;;;;19.30;9.33;;;;;;;17.98;69.87;101512.34;5074621;28;20171;-68
2021/07/22 07:25:47;;;;;;;11.33;8.03;;;;;;;18.04;68.05;101520.84;5074630;28;20202;-68
2021/07/22 07:28:13;;;;;;;12.90;8.30;;;;;;;18.13;67.84;101524.72;5073874;28;20620;-68
2021/07/22 07:30:38;;;;;;;10.47;8.20;;;;;;;18.25;67.91;101521.13;5074530;28;20167;-68
2021/07/22 07:33:04;;;;;;;12.03;7.60;;;;;;;18.54;66.81;101524.31;5074313;28;20259;-68
2021/07/22 07:35:30;;;;;;;10.83;7.17;;;;;;;18.97;65.63;101529.22;5073422;28;20215;-68
2021/07/22 07:37:55;;;;;;;7.83;6.63;;;;;;;19.15;63.34;101525.06;5073186;28;20221;-68
2021/07/22 07:40:21;;;;;;;9.77;7.23;;;;;;;19.12;62.73;101529.88;5073072;28;20171;-68
2021/07/22 07:42:46;;;;;;;11.77;6.70;;;;;;;18.91;63.14;101519.72;5073163;28;20171;-67
2021/07/22 07:45:12;;;;;;;10.40;6.00;;;;;;;18.86;63.63;101513.78;5074485;28;20679;-68
2021/07/22 07:47:37;;;;;;;9.27;6.13;;;;;;;18.89;63.66;101516.25;5072921;28;20230;-68
2021/07/22 07:50:03;;;;;;;10.00;6.57;;;;;;;18.94;62.44;101514.06;5074162;28;20174;-68
2021/07/22 07:52:30;;;;;;;10.57;6.30;;;;;;;18.92;62.85;101516.03;5072948;28;20199;-67
2021/07/22 07:54:56;;;;;;;8.77;5.67;;;;;;;19.00;63.89;101510.91;5074020;28;20582;-68
2021/07/22 07:57:21;;;;;;;11.07;6.27;;;;;;;19.03;62.43;101516.09;5074225;28;20189;-67
2021/07/22 07:59:47;;;;;;;13.50;6.23;;;;;;;19.02;63.50;101508.94;5074311;28;20265;-68
2021/07/22 08:02:16;;;;;;;14.53;9.37;;;;;;;19.05;63.42;101508.72;5072545;28;20210;-68
2021/07/22 08:04:41;;;;;;;7.47;5.57;;;;;;;19.02;63.94;101514.34;5072513;28;20202;-67
2021/07/22 08:07:07;;;;;;;7.97;5.77;;;;;;;18.96;64.82;101512.13;5056616;28;20228;-67
2021/07/22 08:09:32;;;;;;;9.07;5.60;;;;;;;19.00;63.60;101510.91;5081934;28;20182;-68
2021/07/22 08:11:58;;;;;;;8.97;5.97;;;;;;;18.91;63.01;101508.88;5087102;28;20178;-68
2021/07/22 08:14:23;;;;;;;9.27;4.80;;;;;;;18.86;61.81;101502.97;5080342;28;20258;-68
2021/07/22 08:16:49;;;;;;;6.50;4.53;;;;;;;18.90;62.24;101504.47;5073619;28;20274;-68
2021/07/22 08:19:15;;;;;;;7.70;5.13;;;;;;;19.03;62.03;101504.41;5072093;28;20203;-67
2021/07/22 08:21:40;;;;;;;6.07;4.83;;;;;;;19.10;61.46;101500.22;5072102;28;20187;-67
2021/07/22 08:24:05;;;;;;;6.17;4.87;;;;;;;19.28;60.77;101504.19;5073486;28;20175;-67
2021/07/22 08:26:31;;;;;;;9.17;5.00;;;;;;;19.39;61.65;101506.06;5073322;28;20225;-67
2021/07/22 08:28:57;;;;;;;7.20;4.57;;;;;;;19.30;60.10;101504.06;5073801;28;20175;-67
2021/07/22 08:31:23;;;;;;;8.10;5.30;;;;;;;19.21;58.95;101505.66;5073614;28;20175;-68
2021/07/22 08:33:50;;;;;;;8.20;5.43;;;;;;;19.20;59.16;101511.19;5073141;28;20206;-68
2021/07/22 08:36:15;;;;;;;7.33;5.10;;;;;;;19.10;59.54;101499.38;5072003;28;20202;-68
2021/07/22 08:38:40;;;;;;;15.03;10.30;;;;;;;19.26;59.78;101506.16;5073202;28;20179;-68
2021/07/22 08:41:06;;;;;;;7.00;4.97;;;;;;;19.22;58.53;101511.91;5073143;28;20194;-68
2021/07/22 08:43:33;;;;;;;8.17;5.40;;;;;;;19.19;59.37;101520.28;5072312;28;20206;-67
2021/07/22 08:45:58;;;;;;;7.27;5.10;;;;;;;19.34;59.22;101508.28;5072412;28;20198;-68
2021/07/22 08:48:23;;;;;;;9.50;4.70;;;;;;;19.56;57.68;101507.44;5071939;28;20185;-69
2021/07/22 08:50:49;;;;;;;8.87;5.07;;;;;;;19.65;57.56;101506.69;5073414;28;20175;-68
2021/07/22 08:53:15;;;;;;;9.83;4.63;;;;;;;19.84;58.10;101500.66;5073232;28;20203;-68
2021/07/22 08:55:43;;;;;;;9.77;4.53;;;;;;;19.99;57.31;101510.25;5073038;28;20195;-69
2021/07/22 08:58:09;;;;;;;6.77;4.73;;;;;;;20.23;56.75;101507.38;5072009;28;20175;-69
2021/07/22 09:00:34;;;;;;;6.47;4.20;;;;;;;20.14;56.49;101503.59;5071749;28;20182;-69
2021/07/22 09:03:00;;;;;;;4.97;4.03;;;;;;;20.06;56.09;101508.75;5072913;28;20547;-69
2021/07/22 09:05:28;;;;;;;6.30;4.67;;;;;;;20.03;57.23;101509.00;5072874;28;20229;-68
2021/07/22 09:07:54;;;;;;;5.67;4.00;;;;;;;20.42;56.88;101504.00;5073208;28;20302;-68
2021/07/22 09:10:20;;;;;;;6.00;4.23;;;;;;;20.52;54.46;101496.84;5073023;28;20256;-68
2021/07/22 09:12:54;;;;;;;5.80;4.30;;;;;;;20.43;54.48;101505.72;5072853;28;20199;-68
2021/07/22 09:15:24;;;;;;;7.30;3.83;;;;;;;20.68;54.33;101502.69;5071976;28;20194;-68
2021/07/22 09:17:50;;;;;;;7.73;4.07;;;;;;;20.97;53.53;101497.50;5071864;28;20152;-68
2021/07/22 09:20:45;;;;;;;11.33;4.37;;;;;;;21.01;53.58;101488.09;5073792;28;20175;-68
2021/07/22 09:23:21;;;;;;;7.77;4.13;;;;;;;20.91;53.50;101498.03;5060285;28;20190;-69
2021/07/22 09:25:48;;;;;;;6.13;4.00;;;;;;;21.02;52.54;101484.38;5075980;28;20654;-68
2021/07/22 09:28:20;;;;;;;8.47;4.70;;;;;;;21.15;52.12;101498.59;5076921;28;20609;-68
2021/07/22 09:30:57;;;;;;;5.73;4.00;;;;;;;21.41;51.53;101501.78;5076912;28;20213;-69
2021/07/22 09:33:35;;;;;;;5.40;4.00;;;;;;;21.58;51.62;101494.03;5075476;28;20285;-69
2021/07/22 09:36:00;;;;;;;6.07;3.83;;;;;;;21.73;50.83;101489.91;5076686;28;20194;-69
2021/07/22 09:38:28;;;;;;;9.83;3.40;;;;;;;21.81;52.05;101481.94;5076749;28;20179;-69
2021/07/22 09:40:53;;;;;;;10.43;3.90;;;;;;;21.65;51.52;101497.91;5075340;28;20171;-69
2021/07/22 09:43:39;;;;;;;4.47;3.53;;;;;;;21.20;52.18;101493.66;5075357;28;20650;-69
2021/07/22 09:46:05;;;;;;;5.53;3.27;;;;;;;21.20;52.57;101482.78;5075159;28;20202;-69
2021/07/22 09:48:30;;;;;;;6.60;3.67;;;;;;;21.09;52.46;101484.69;5075156;28;20651;-69
2021/07/22 09:50:55;;;;;;;7.63;4.17;;;;;;;21.32;52.21;101474.59;5076698;28;20220;-68
2021/07/22 09:53:22;;;;;;;5.50;3.03;;;;;;;21.18;51.40;101501.03;5076635;28;20289;-68
2021/07/22 09:55:52;;;;;;;6.77;3.70;;;;;;;20.98;51.50;101506.50;5076537;28;20323;-68
2021/07/22 09:58:18;;;;;;;5.00;3.07;;;;;;;21.13;52.04;101495.16;5075083;28;20567;-68
2021/07/22 10:00:48;;;;;;;6.33;2.93;;;;;;;21.41;51.81;101490.91;5075235;28;20179;-67
2021/07/22 10:03:15;;;;;;;3.70;3.27;;;;;;;21.64;49.60;101496.19;5076095;28;20203;-70
2021/07/22 10:05:52;;;;;;;11.90;9.00;;;;;;;21.32;50.65;101489.03;5097702;22;20287;-68
2021/07/22 10:08:19;;;;;;;12.13;6.17;;;;;;;21.65;49.86;101493.34;5096403;28;20239;-68
2021/07/22 10:10:51;;;;;;;9.43;3.60;;;;;;;21.73;49.90;101500.78;5096272;28;20178;-68
2021/07/22 10:13:16;;;;;;;4.60;3.50;;;;;;;22.05;48.65;101492.50;5095264;28;20641;-68
2021/07/22 10:15:43;;;;;;;5.87;3.47;;;;;;;22.02;49.34;101496.31;5096247;28;20209;-68
2021/07/22 10:18:08;;;;;;;5.23;3.17;;;;;;;22.42;48.29;101492.69;5096244;28;20515;-68
2021/07/22 10:20:35;;;;;;;6.00;3.07;;;;;;;22.63;47.63;101500.72;5095287;28;20232;-68
2021/07/22 10:23:01;;;;;;;5.93;3.53;;;;;;;22.52;47.54;101488.13;5096397;28;20179;-68
2021/07/22 10:25:27;;;;;;;7.23;3.10;;;;;;;22.86;47.34;101498.59;5096358;28;20242;-69
2021/07/22 10:27:53;;;;;;;7.47;3.30;;;;;;;22.66;47.28;101489.53;5094933;28;20661;-69
2021/07/22 10:30:20;;;;;;;6.67;3.10;;;;;;;22.64;47.24;101481.53;5096061;28;20207;-68
2021/07/22 10:32:49;;;;;;;10.23;5.07;;;;;;;22.79;46.77;101484.69;5094631;28;20202;-68
2021/07/22 10:35:18;;;;;;;8.53;4.63;;;;;;;22.85;46.67;101481.41;5095567;28;20725;-68
2021/07/22 10:38:03;;;;;;;6.10;3.90;;;;;;;23.05;46.86;101488.56;5094564;28;20642;-69
2021/07/22 10:40:48;;;;;;;6.23;4.10;;;;;;;22.81;46.72;101492.72;5094502;28;20170;-69
2021/07/22 10:43:42;;;;;;;6.87;4.23;;;;;;;22.43;47.12;101472.66;5096141;28;20174;-68
2021/07/22 10:46:16;;;;;;;7.17;3.80;;;;;;;22.77;46.69;101476.66;5095812;28;20190;-68
2021/07/22 10:48:43;;;;;;;8.17;3.70;;;;;;;23.21;46.21;101477.03;5095825;28;20158;-69
2021/07/22 10:51:16;;;;;;;5.80;3.13;;;;;;;23.08;45.44;101477.38;5094530;28;20178;-69
2021/07/22 10:53:50;;;;;;;4.60;2.80;;;;;;;23.14;45.92;101470.47;5095990;28;20206;-69
2021/07/22 10:56:40;;;;;;;5.87;3.03;;;;;;;23.64;45.52;101472.91;5094474;28;20251;-68
2021/07/22 10:59:06;;;;;;;3.40;3.07;;;;;;;23.66;45.20;101465.44;5095394;28;20254;-69
2021/07/22 11:01:43;;;;;;;5.47;2.60;;;;;;;23.93;44.63;101470.03;5095219;28;20609;-69
2021/07/22 11:04:15;;;;;;;4.13;2.63;;;;;;;24.22;43.79;101453.50;5095311;28;20166;-69
2021/07/22 11:06:58;;;;;;;3.93;2.63;;;;;;;23.87;43.81;101470.66;5095259;28;20305;-68
2021/07/22 11:09:45;;;;;;;7.20;2.80;;;;;;;24.04;44.30;101458.06;5094963;28;20230;-68
2021/07/22 11:12:30;;;;;;;7.43;2.93;;;;;;;24.12;42.95;101455.41;5095054;28;20188;-68
2021/07/22 11:14:57;;;;;;;5.27;3.07;;;;;;;24.27;43.21;101462.06;5094887;28;20217;-68